Time;durP1;ratioP1;P1;durP2;ratioP2;P2;SDS_P1;SDS_P2;PMS_P1;PMS_P2;Temp;Humidity;BMP_temperature;BMP_pressure;BME280_temperature;BME280_humidity;BME280_pressure;Samples;Min_cycle;Max_cycle;Signal;HPM_P1;HPM_P2
2021/06/05 00:01:27;;;;;;;12.00;10.90;;;19.20;99.90;;;;;;5036100;28;20744;-81
2021/06/05 00:03:56;;;;;;;14.13;12.37;;;19.20;99.90;;;;;;5062577;28;20233;-82
2021/06/05 00:06:26;;;;;;;13.07;11.77;;;19.10;99.90;;;;;;5049813;28;20239;-82
2021/06/05 00:08:55;;;;;;;12.23;11.07;;;19.10;99.90;;;;;;5049652;28;20246;-82
2021/06/05 00:11:26;;;;;;;12.83;11.67;;;19.10;99.90;;;;;;5049204;28;20694;-82
2021/06/05 00:13:57;;;;;;;12.47;11.23;;;19.00;99.90;;;;;;5066946;28;20277;-82
2021/06/05 00:16:27;;;;;;;12.33;11.23;;;19.00;99.90;;;;;;5068011;28;20376;-82
2021/06/05 00:18:57;;;;;;;12.50;11.40;;;19.00;99.90;;;;;;5069079;28;20238;-82
2021/06/05 00:21:26;;;;;;;13.03;11.90;;;19.00;99.90;;;;;;5069239;28;20315;-81
2021/06/05 00:23:55;;;;;;;12.73;11.43;;;19.00;99.90;;;;;;5068837;28;20265;-83
2021/06/05 00:26:22;;;;;;;13.60;12.10;;;19.00;99.90;;;;;;5069028;28;20257;-82
2021/06/05 00:28:50;;;;;;;11.40;10.47;;;19.00;99.90;;;;;;5051541;28;20247;-83
2021/06/05 00:31:20;;;;;;;12.87;11.77;;;19.00;99.90;;;;;;5049012;28;20714;-82
2021/06/05 00:33:48;;;;;;;12.53;11.40;;;18.90;99.90;;;;;;5065665;28;20234;-82
2021/06/05 00:36:17;;;;;;;13.07;11.97;;;18.90;99.90;;;;;;5059898;28;20784;-82
2021/06/05 00:38:45;;;;;;;13.77;12.47;;;18.90;99.90;;;;;;5064575;28;20247;-83
2021/06/05 00:41:16;;;;;;;13.43;12.13;;;18.80;99.90;;;;;;5069089;28;20788;-82
2021/06/05 00:43:47;;;;;;;13.03;11.73;;;18.80;99.90;;;;;;5076362;28;20241;-82
2021/06/05 00:46:17;;;;;;;13.67;12.47;;;18.80;99.90;;;;;;5047573;28;20269;-83
2021/06/05 00:48:45;;;;;;;12.53;11.43;;;18.80;99.90;;;;;;5063802;28;20304;-83
2021/06/05 00:51:16;;;;;;;12.80;11.70;;;18.80;99.90;;;;;;5063793;28;20262;-82
2021/06/05 00:53:52;;;;;;;12.50;11.30;;;18.80;99.90;;;;;;5080064;28;20352;-83
2021/06/05 00:56:21;;;;;;;13.13;12.00;;;18.80;99.90;;;;;;5067407;28;20298;-82
2021/06/05 00:58:49;;;;;;;13.07;11.87;;;18.80;99.90;;;;;;5066593;28;20651;-83
2021/06/05 01:01:22;;;;;;;12.77;11.10;;;18.70;99.90;;;;;;5063699;28;20257;-81
2021/06/05 01:03:54;;;;;;;12.97;11.67;;;18.70;99.90;;;;;;5064035;28;20313;-82
2021/06/05 01:06:26;;;;;;;12.07;11.00;;;18.70;99.90;;;;;;5068570;28;20287;-82
2021/06/05 01:09:02;;;;;;;13.47;12.10;;;18.70;99.90;;;;;;5064899;28;20300;-82
2021/06/05 01:11:41;;;;;;;12.43;11.23;;;18.60;99.90;;;;;;5050166;28;20234;-82
2021/06/05 01:14:17;;;;;;;13.47;12.27;;;18.60;99.90;;;;;;5063170;28;20924;-82
2021/06/05 01:16:48;;;;;;;12.97;11.67;;;18.60;99.90;;;;;;5048385;28;20260;-82
2021/06/05 01:19:50;;;;;;;12.77;11.57;;;18.60;99.90;;;;;;5043447;28;20318;-82
2021/06/05 01:22:40;;;;;;;12.27;11.27;;;18.60;99.90;;;;;;5045438;28;20250;-82
2021/06/05 01:25:23;;;;;;;12.73;11.63;;;18.60;99.90;;;;;;5046521;28;20237;-81
2021/06/05 01:27:56;;;;;;;12.63;11.57;;;18.50;99.90;;;;;;5073099;28;20720;-82
2021/06/05 01:30:30;;;;;;;13.07;11.90;;;18.50;99.90;;;;;;5083683;28;20234;-83
2021/06/05 01:33:01;;;;;;;12.90;11.70;;;18.50;99.90;;;;;;5056325;28;20307;-83
2021/06/05 01:35:31;;;;;;;12.20;11.20;;;18.50;99.90;;;;;;5046438;28;20631;-83
2021/06/05 01:38:03;;;;;;;12.37;11.37;;;18.50;99.90;;;;;;5073412;28;20702;-82
2021/06/05 01:40:33;;;;;;;12.27;11.00;;;18.40;99.90;;;;;;5083201;28;20234;-81
2021/06/05 01:43:06;;;;;;;12.07;11.00;;;18.40;99.90;;;;;;5072562;28;20237;-82
2021/06/05 01:45:40;;;;;;;12.67;11.47;;;18.40;99.90;;;;;;5046832;28;20630;-82
2021/06/05 01:48:11;;;;;;;12.60;11.50;;;18.40;99.90;;;;;;5057391;28;20229;-83
2021/06/05 01:50:43;;;;;;;12.30;11.30;;;18.30;99.90;;;;;;5067881;28;20690;-82
2021/06/05 01:53:18;;;;;;;12.83;10.63;;;18.30;99.90;;;;;;5055791;28;20729;-82
2021/06/05 01:55:50;;;;;;;11.63;10.63;;;18.30;99.90;;;;;;5047911;28;20249;-82
2021/06/05 01:58:23;;;;;;;13.67;11.47;;;18.30;99.90;;;;;;5075546;28;20711;-81
2021/06/05 02:00:59;;;;;;;13.50;12.30;;;18.30;99.90;;;;;;5083352;28;20642;-82
2021/06/05 02:03:34;;;;;;;12.30;11.07;;;18.30;99.90;;;;;;5082961;28;20245;-82
2021/06/05 02:06:20;;;;;;;12.17;10.97;;;18.20;99.90;;;;;;5067693;28;20712;-81
2021/06/05 02:08:49;;;;;;;12.87;11.70;;;18.20;99.90;;;;;;5065974;28;20294;-81
2021/06/05 02:11:21;;;;;;;11.80;10.70;;;18.20;99.90;;;;;;5066106;28;20663;-81
2021/06/05 02:14:02;;;;;;;12.50;11.43;;;18.20;99.90;;;;;;5063026;28;20252;-82
2021/06/05 02:16:36;;;;;;;12.33;11.23;;;18.20;99.90;;;;;;5062898;28;20263;-82
2021/06/05 02:19:09;;;;;;;13.13;11.93;;;18.20;99.90;;;;;;5062836;28;20274;-82
2021/06/05 02:21:46;;;;;;;12.73;11.63;;;18.20;99.90;;;;;;5062585;28;20240;-82
2021/06/05 02:24:19;;;;;;;12.07;10.97;;;18.20;99.90;;;;;;5046187;28;20238;-82
2021/06/05 02:26:48;;;;;;;11.27;10.37;;;18.30;99.90;;;;;;5046098;28;20241;-82
2021/06/05 02:29:36;;;;;;;12.03;10.93;;;18.20;99.90;;;;;;5042906;28;20230;-81
2021/06/05 02:32:09;;;;;;;12.77;11.23;;;18.20;99.90;;;;;;5036413;28;20241;-82
2021/06/05 02:34:38;;;;;;;11.77;10.57;;;18.20;99.90;;;;;;5067719;28;20237;-82
2021/06/05 02:37:18;;;;;;;12.13;11.13;;;18.20;99.90;;;;;;5063008;28;20267;-82
2021/06/05 02:39:48;;;;;;;12.47;11.27;;;18.20;99.90;;;;;;5045866;28;20762;-82
2021/06/05 02:42:19;;;;;;;13.07;11.70;;;18.20;99.90;;;;;;5049361;28;20229;-82
2021/06/05 02:44:51;;;;;;;12.57;11.37;;;18.20;99.90;;;;;;5078457;28;20244;-82
2021/06/05 02:47:22;;;;;;;12.23;11.03;;;18.20;99.90;;;;;;5067041;28;20232;-82
2021/06/05 02:49:51;;;;;;;11.23;10.13;;;18.20;99.90;;;;;;5067686;28;20233;-82
2021/06/05 02:52:32;;;;;;;11.37;10.47;;;18.30;99.90;;;;;;5070582;28;20228;-81
2021/06/05 02:55:09;;;;;;;11.43;10.23;;;18.30;99.90;;;;;;5051229;28;20238;-81
2021/06/05 02:57:39;;;;;;;10.33;9.33;;;18.20;99.90;;;;;;5049150;28;20252;-82
2021/06/05 03:00:27;;;;;;;10.63;9.73;;;18.20;99.90;;;;;;5066100;28;20664;-82
2021/06/05 03:02:56;;;;;;;11.47;10.47;;;18.20;99.90;;;;;;5051020;28;20774;-82
2021/06/05 03:05:26;;;;;;;11.13;10.23;;;18.20;99.90;;;;;;5049536;28;20237;-82
2021/06/05 03:07:56;;;;;;;11.33;10.23;;;18.10;99.90;;;;;;5051078;28;20780;-82
2021/06/05 03:10:28;;;;;;;10.57;9.67;;;18.10;99.90;;;;;;5049562;28;20241;-82
2021/06/05 03:12:58;;;;;;;11.33;10.23;;;18.10;99.90;;;;;;5050372;28;20901;-82
2021/06/05 03:15:29;;;;;;;10.73;9.63;;;18.10;99.90;;;;;;5065620;28;20703;-81
2021/06/05 03:17:58;;;;;;;10.67;9.77;;;18.00;99.90;;;;;;5066093;28;20626;-81
2021/06/05 03:20:29;;;;;;;10.27;9.37;;;18.00;99.90;;;;;;5050673;28;20233;-81
2021/06/05 03:22:57;;;;;;;10.73;9.73;;;18.00;99.90;;;;;;5059675;28;20324;-82
2021/06/05 03:25:27;;;;;;;10.97;9.97;;;18.00;99.90;;;;;;5069002;28;20257;-83
2021/06/05 03:27:57;;;;;;;11.03;10.10;;;18.00;99.90;;;;;;5084292;28;20643;-82
2021/06/05 03:30:30;;;;;;;11.40;10.17;;;18.00;99.90;;;;;;5073121;28;20273;-82
2021/06/05 03:32:57;;;;;;;10.53;9.57;;;18.00;99.90;;;;;;5030459;28;20703;-82
2021/06/05 03:35:29;;;;;;;11.03;10.03;;;18.00;99.90;;;;;;5030443;28;20230;-82
2021/06/05 03:37:58;;;;;;;11.20;10.03;;;17.90;99.90;;;;;;5064156;28;20240;-78
2021/06/05 03:40:29;;;;;;;11.57;10.30;;;17.90;99.90;;;;;;5084963;28;20231;-82
2021/06/05 03:42:57;;;;;;;11.33;10.23;;;17.90;99.90;;;;;;5085085;28;20262;-79
2021/06/05 03:45:29;;;;;;;11.20;10.17;;;17.90;99.90;;;;;;5085032;28;20225;-77
2021/06/05 03:47:59;;;;;;;12.33;9.90;;;17.90;99.90;;;;;;5059757;28;20241;-77
2021/06/05 03:50:32;;;;;;;11.10;10.10;;;18.00;99.90;;;;;;5064755;28;20353;-79
2021/06/05 03:53:00;;;;;;;10.00;9.20;;;18.00;99.90;;;;;;5063865;28;20249;-78
2021/06/05 03:55:30;;;;;;;10.60;9.73;;;18.10;99.90;;;;;;5063729;28;20716;-78
2021/06/05 03:57:59;;;;;;;10.90;9.90;;;18.10;99.90;;;;;;5049477;28;20763;-78
2021/06/05 04:00:35;;;;;;;11.00;9.90;;;18.20;99.90;;;;;;5048622;28;20316;-77
2021/06/05 04:03:03;;;;;;;10.17;9.23;;;18.20;99.90;;;;;;5058825;28;20241;-78
2021/06/05 04:05:33;;;;;;;10.93;9.80;;;18.30;99.90;;;;;;5069626;28;20328;-78
2021/06/05 04:08:01;;;;;;;10.67;9.77;;;18.40;99.90;;;;;;5067518;28;20239;-77
2021/06/05 04:10:29;;;;;;;10.60;9.60;;;18.40;99.90;;;;;;5069147;28;20233;-77
2021/06/05 04:12:58;;;;;;;10.63;9.53;;;18.40;99.90;;;;;;5068804;28;20244;-78
2021/06/05 04:15:29;;;;;;;10.53;9.40;;;18.50;99.90;;;;;;5067682;28;20556;-78
2021/06/05 04:18:07;;;;;;;10.20;9.20;;;18.50;99.90;;;;;;5059500;28;20242;-78
2021/06/05 04:20:37;;;;;;;10.07;9.17;;;18.60;99.90;;;;;;5049370;28;20252;-78
2021/06/05 04:23:05;;;;;;;9.77;8.87;;;18.60;99.90;;;;;;5074158;28;20234;-77
2021/06/05 04:25:33;;;;;;;10.60;9.70;;;18.60;99.90;;;;;;5050460;28;20304;-78
2021/06/05 04:28:03;;;;;;;10.03;9.03;;;18.70;99.90;;;;;;5064337;28;20319;-77
2021/06/05 04:30:32;;;;;;;10.47;9.57;;;18.70;99.90;;;;;;5038816;28;20641;-78
2021/06/05 04:32:59;;;;;;;10.77;9.77;;;18.80;99.90;;;;;;5050621;28;20273;-78
2021/06/05 04:35:29;;;;;;;9.43;8.43;;;18.80;99.90;;;;;;5039787;28;20349;-77
2021/06/05 04:37:57;;;;;;;10.23;9.27;;;18.90;99.90;;;;;;5045622;28;20821;-78
2021/06/05 04:40:27;;;;;;;9.97;8.90;;;18.90;99.90;;;;;;5035994;28;20318;-77
2021/06/05 04:42:55;;;;;;;9.90;9.07;;;18.90;99.90;;;;;;5037765;28;20284;-75
2021/06/05 04:45:25;;;;;;;9.80;8.90;;;18.80;99.90;;;;;;5048118;28;20732;-78
2021/06/05 04:47:53;;;;;;;10.57;9.63;;;18.80;99.90;;;;;;5056800;28;20240;-78
2021/06/05 04:50:25;;;;;;;10.13;9.33;;;18.80;99.90;;;;;;5048459;28;20329;-78
2021/06/05 04:52:54;;;;;;;10.13;9.13;;;18.80;99.90;;;;;;5049934;28;20252;-78
2021/06/05 04:55:24;;;;;;;9.77;8.90;;;18.70;99.90;;;;;;5049918;28;20593;-78
2021/06/05 04:57:52;;;;;;;10.00;9.10;;;18.70;99.90;;;;;;5048101;28;20238;-79
2021/06/05 05:00:24;;;;;;;10.10;9.23;;;18.70;99.90;;;;;;5048335;28;20751;-78
2021/06/05 05:02:52;;;;;;;10.23;9.33;;;18.70;99.90;;;;;;5047884;28;20566;-79
2021/06/05 05:05:21;;;;;;;9.63;8.70;;;18.80;99.90;;;;;;5048108;28;20242;-78
2021/06/05 05:07:50;;;;;;;10.27;9.43;;;18.80;99.90;;;;;;5047995;28;20294;-77
2021/06/05 05:10:23;;;;;;;10.00;9.10;;;18.80;99.90;;;;;;5048114;28;20232;-79
2021/06/05 05:12:51;;;;;;;13.10;9.47;;;18.90;99.90;;;;;;5056187;28;20243;-77
2021/06/05 05:15:19;;;;;;;9.77;8.87;;;18.90;99.90;;;;;;5068034;28;20237;-79
2021/06/05 05:17:47;;;;;;;10.50;9.13;;;19.10;99.90;;;;;;5038470;28;20757;-78
2021/06/05 05:20:19;;;;;;;9.90;9.00;;;19.20;99.90;;;;;;5037876;28;20230;-78
2021/06/05 05:22:47;;;;;;;10.17;9.33;;;19.40;99.90;;;;;;5046319;28;20249;-78
2021/06/05 05:25:15;;;;;;;10.63;9.53;;;19.60;99.90;;;;;;5052861;28;20237;-78
2021/06/05 05:27:44;;;;;;;9.10;8.30;;;19.90;99.90;;;;;;5044451;28;20249;-78
2021/06/05 05:30:17;;;;;;;10.37;9.43;;;20.10;99.90;;;;;;5041138;28;20711;-78
2021/06/05 05:32:44;;;;;;;9.77;8.97;;;20.10;99.90;;;;;;5048900;28;20300;-76
2021/06/05 05:35:14;;;;;;;10.33;9.43;;;20.20;99.90;;;;;;5047890;28;20261;-78
2021/06/05 05:37:42;;;;;;;10.20;9.20;;;20.20;99.90;;;;;;5046918;28;20239;-79
2021/06/05 05:40:12;;;;;;;10.47;9.47;;;20.40;99.90;;;;;;5047951;28;20263;-79
2021/06/05 05:42:40;;;;;;;9.13;8.43;;;20.50;99.90;;;;;;5045455;28;20652;-78
2021/06/05 05:45:11;;;;;;;10.10;9.20;;;20.60;99.90;;;;;;5035939;28;20314;-78
2021/06/05 05:47:39;;;;;;;10.67;9.67;;;20.40;99.90;;;;;;5041988;28;20239;-78
2021/06/05 05:50:09;;;;;;;10.10;9.20;;;20.50;99.90;;;;;;5043887;28;20714;-79
2021/06/05 05:52:37;;;;;;;10.07;9.03;;;20.60;99.90;;;;;;5043022;28;20231;-79
2021/06/05 05:55:07;;;;;;;9.10;8.33;;;20.70;99.90;;;;;;5044034;28;20305;-79
2021/06/05 05:57:35;;;;;;;9.53;8.73;;;20.90;99.90;;;;;;5041576;28;20619;-78
2021/06/05 06:00:05;;;;;;;10.70;9.00;;;21.10;99.90;;;;;;5044281;28;20235;-79
2021/06/05 06:02:41;;;;;;;10.17;9.00;;;21.00;99.90;;;;;;5044027;28;20678;-79
2021/06/05 06:05:10;;;;;;;10.17;9.20;;;21.10;99.90;;;;;;5040532;28;20292;-78
2021/06/05 06:07:38;;;;;;;9.27;8.47;;;21.20;99.90;;;;;;5038927;28;20241;-78
2021/06/05 06:10:07;;;;;;;10.40;9.50;;;21.30;99.90;;;;;;5047628;28;20232;-79
2021/06/05 06:12:36;;;;;;;9.23;8.37;;;21.50;99.90;;;;;;5039023;28;20238;-78
2021/06/05 06:15:05;;;;;;;9.63;8.73;;;21.70;99.90;;;;;;5035769;28;20237;-78
2021/06/05 06:17:33;;;;;;;9.50;8.60;;;22.00;99.90;;;;;;5039329;28;20261;-79
2021/06/05 06:20:03;;;;;;;9.20;8.40;;;22.20;99.90;;;;;;5059374;28;20242;-78
2021/06/05 06:22:31;;;;;;;10.07;9.07;;;22.10;99.90;;;;;;5052753;28;20301;-78
2021/06/05 06:24:59;;;;;;;9.03;8.20;;;22.20;99.90;;;;;;5057531;28;20238;-79
2021/06/05 06:27:31;;;;;;;8.73;7.90;;;22.30;99.90;;;;;;5042929;28;20283;-79
2021/06/05 06:29:59;;;;;;;9.43;8.53;;;22.50;99.90;;;;;;5086858;28;20238;-80
2021/06/05 06:32:27;;;;;;;8.73;8.03;;;22.50;99.90;;;;;;5069361;28;20238;-81
2021/06/05 06:34:55;;;;;;;9.30;8.20;;;22.60;99.90;;;;;;5060668;28;20247;-80
2021/06/05 06:37:24;;;;;;;12.23;9.17;;;22.60;99.90;;;;;;5047820;28;20228;-77
2021/06/05 06:39:52;;;;;;;9.60;8.73;;;22.50;99.90;;;;;;5036677;28;20232;-78
2021/06/05 06:42:20;;;;;;;9.40;8.60;;;22.80;99.90;;;;;;5045677;28;20241;-78
2021/06/05 06:44:50;;;;;;;9.20;8.40;;;22.90;99.90;;;;;;5048276;28;20695;-80
2021/06/05 06:47:17;;;;;;;9.57;8.67;;;23.00;99.90;;;;;;5049890;28;20422;-79
2021/06/05 06:49:45;;;;;;;8.63;7.93;;;23.00;99.90;;;;;;5047299;28;20711;-78
2021/06/05 06:52:12;;;;;;;9.10;8.30;;;23.30;99.90;;;;;;5054241;28;20245;-75
2021/06/05 06:54:42;;;;;;;9.37;8.40;;;23.40;99.90;;;;;;5071375;28;20695;-77
2021/06/05 06:57:09;;;;;;;9.10;8.30;;;23.60;99.90;;;;;;5067255;28;20244;-78
2021/06/05 06:59:38;;;;;;;10.60;8.10;;;23.50;99.90;;;;;;5064899;28;20243;-81
2021/06/05 07:02:15;;;;;;;12.00;7.93;;;23.60;99.90;;;;;;5067955;28;20242;-83
2021/06/05 07:04:42;;;;;;;9.10;8.30;;;23.90;99.90;;;;;;5070982;28;20238;-81
2021/06/05 07:07:10;;;;;;;8.60;7.73;;;24.10;99.90;;;;;;5047200;28;20346;-82
2021/06/05 07:09:38;;;;;;;14.40;7.43;;;24.40;99.90;;;;;;5032891;28;20243;-84
2021/06/05 07:12:09;;;;;;;13.50;8.67;;;24.30;99.90;;;;;;5029555;28;20686;-84
2021/06/05 07:14:37;;;;;;;9.77;7.73;;;24.30;99.90;;;;;;5031630;28;20241;-84
2021/06/05 07:17:08;;;;;;;9.13;7.10;;;24.40;99.90;;;;;;5048690;28;20359;-85
2021/06/05 07:19:36;;;;;;;10.33;7.27;;;24.60;99.90;;;;;;5051472;28;20236;-84
2021/06/05 07:22:04;;;;;;;7.80;7.00;;;24.60;99.90;;;;;;5053216;28;20232;-84
2021/06/05 07:24:34;;;;;;;8.13;7.33;;;24.70;99.90;;;;;;5071354;28;20228;-85
2021/06/05 07:27:03;;;;;;;9.50;6.83;;;24.80;99.90;;;;;;5069668;28;20676;-85
2021/06/05 07:29:32;;;;;;;8.63;7.30;;;24.70;99.90;;;;;;5069836;28;20326;-84
2021/06/05 07:32:02;;;;;;;9.63;7.03;;;24.60;99.90;;;;;;5068911;28;20239;-85
2021/06/05 07:34:30;;;;;;;7.93;6.93;;;24.60;99.90;;;;;;5069984;28;20241;-84
2021/06/05 07:37:03;;;;;;;7.70;6.90;;;24.80;99.90;;;;;;5063799;28;20236;-86
2021/06/05 07:39:38;;;;;;;7.73;7.03;;;25.00;99.90;;;;;;5054018;28;20253;-86
2021/06/05 07:42:08;;;;;;;7.17;6.47;;;25.10;99.90;;;;;;5057970;28;20254;-85
2021/06/05 07:44:41;;;;;;;8.67;6.50;;;25.30;99.90;;;;;;5054979;28;20732;-88
2021/06/05 07:47:08;;;;;;;6.37;5.87;;;25.60;99.90;;;;;;5058175;28;20295;-85
2021/06/05 07:49:39;;;;;;;7.50;6.70;;;25.70;99.90;;;;;;5059427;28;20238;-86
2021/06/05 07:52:11;;;;;;;8.93;6.90;;;25.60;99.90;;;;;;5059344;28;20315;-85
2021/06/05 07:54:39;;;;;;;7.43;6.63;;;25.40;99.90;;;;;;5056688;28;20245;-85
2021/06/05 07:57:12;;;;;;;7.43;6.53;;;25.50;99.90;;;;;;5057795;28;20255;-86
2021/06/05 07:59:41;;;;;;;7.47;6.80;;;25.60;99.90;;;;;;5056271;28;20254;-85
2021/06/05 08:02:09;;;;;;;6.83;6.20;;;25.40;99.90;;;;;;5052356;28;20261;-85
2021/06/05 08:04:38;;;;;;;7.43;6.23;;;25.40;99.90;;;;;;5063469;28;20241;-85
2021/06/05 08:07:08;;;;;;;7.13;6.43;;;25.40;99.90;;;;;;5062491;28;20233;-85
2021/06/05 08:09:35;;;;;;;6.73;6.03;;;25.50;99.90;;;;;;5063078;28;20306;-85
2021/06/05 08:12:05;;;;;;;7.00;6.30;;;25.70;99.90;;;;;;5071985;28;20320;-85
2021/06/05 08:14:33;;;;;;;8.00;6.20;;;25.50;99.90;;;;;;5052311;28;20268;-84
2021/06/05 08:17:03;;;;;;;6.30;5.77;;;25.20;99.90;;;;;;5059059;28;20253;-85
2021/06/05 08:19:31;;;;;;;6.77;6.00;;;25.20;99.90;;;;;;5059923;28;20237;-86
2021/06/05 08:22:00;;;;;;;6.60;5.97;;;25.40;99.90;;;;;;5060765;28;20240;-86
2021/06/05 08:24:28;;;;;;;6.30;5.70;;;25.40;99.90;;;;;;5059591;28;20237;-86
2021/06/05 08:26:55;;;;;;;6.53;5.93;;;25.40;99.90;;;;;;5061866;28;20570;-87
2021/06/05 08:29:23;;;;;;;6.43;5.83;;;25.90;99.90;;;;;;5055582;28;20239;-83
2021/06/05 08:31:51;;;;;;;6.03;5.20;;;26.40;99.90;;;;;;5054769;28;20295;-86
2021/06/05 08:34:21;;;;;;;6.30;5.80;;;26.50;99.90;;;;;;5055466;28;20238;-87
2021/06/05 08:36:49;;;;;;;6.77;5.47;;;26.60;99.90;;;;;;5054284;28;20246;-86
2021/06/05 08:39:16;;;;;;;6.07;5.57;;;26.50;99.90;;;;;;5059503;28;20234;-86
2021/06/05 08:41:50;;;;;;;5.67;5.17;;;26.50;99.90;;;;;;5058274;28;20251;-86
2021/06/05 08:44:25;;;;;;;5.90;5.30;;;26.40;99.90;;;;;;5062693;28;20298;-86
2021/06/05 08:47:00;;;;;;;9.27;5.47;;;26.20;99.90;;;;;;5062214;28;20246;-88
2021/06/05 08:49:35;;;;;;;5.27;4.80;;;26.10;99.90;;;;;;5048472;28;20241;-86
2021/06/05 08:52:07;;;;;;;6.00;5.20;;;26.10;99.90;;;;;;5059389;28;20652;-86
2021/06/05 08:54:42;;;;;;;5.83;5.10;;;26.70;99.90;;;;;;5072174;28;20300;-86
2021/06/05 08:57:31;;;;;;;6.07;4.83;;;27.50;99.90;;;;;;5045020;28;20268;-86
2021/06/05 09:00:06;;;;;;;6.50;4.60;;;27.80;99.90;;;;;;5050539;28;20322;-87
2021/06/05 09:02:34;;;;;;;7.73;5.13;;;28.60;99.90;;;;;;5056213;28;20230;-86
2021/06/05 09:05:07;;;;;;;5.63;4.77;;;29.40;99.90;;;;;;5059043;28;20245;-87
2021/06/05 09:07:36;;;;;;;7.10;4.93;;;30.20;99.90;;;;;;5053847;28;20434;-87
2021/06/05 09:10:07;;;;;;;6.83;4.60;;;30.60;99.90;;;;;;5055639;28;20231;-89
2021/06/05 09:12:36;;;;;;;4.50;4.10;;;30.00;99.90;;;;;;5057251;28;20235;-87
2021/06/05 09:15:06;;;;;;;4.50;4.10;;;30.20;99.90;;;;;;5052601;28;20255;-87
2021/06/05 09:17:38;;;;;;;5.97;4.60;;;31.30;99.90;;;;;;5049115;28;20247;-87
2021/06/05 09:20:13;;;;;;;5.83;4.37;;;30.90;99.90;;;;;;5055244;28;20265;-86
2021/06/05 09:22:44;;;;;;;4.80;4.40;;;30.40;99.60;;;;;;5077932;28;20234;-87
2021/06/05 09:25:29;;;;;;;6.97;4.97;;;31.10;99.90;;;;;;5057736;28;20265;-86
2021/06/05 09:28:19;;;;;;;4.73;4.13;;;31.20;99.90;;;;;;5065079;28;20244;-88
2021/06/05 09:30:49;;;;;;;6.00;4.17;;;30.70;99.00;;;;;;5053799;28;20246;-86
2021/06/05 09:33:32;;;;;;;5.80;4.83;;;30.80;99.60;;;;;;5057636;28;20253;-87
2021/06/05 09:36:23;;;;;;;4.50;4.03;;;30.60;99.40;;;;;;5072085;28;20259;-86
2021/06/05 09:39:05;;;;;;;4.93;4.20;;;30.50;97.20;;;;;;5057736;28;20240;-87
2021/06/05 09:41:43;;;;;;;6.67;4.10;;;30.40;97.20;;;;;;5066058;28;20239;-87
2021/06/05 09:44:18;;;;;;;6.07;4.00;;;30.70;99.00;;;;;;5077944;28;20717;-87
2021/06/05 09:46:55;;;;;;;6.13;4.30;;;30.70;97.30;;;;;;5056908;28;20645;-90
2021/06/05 09:49:29;;;;;;;4.27;3.97;;;30.50;97.10;;;;;;5059752;28;20706;-88
2021/06/05 09:52:08;;;;;;;4.77;4.10;;;30.00;98.30;;;;;;5055181;28;20239;-88
2021/06/05 09:54:39;;;;;;;4.53;4.07;;;29.80;99.20;;;;;;5048330;28;20228;-88
2021/06/05 09:57:27;;;;;;;4.93;4.20;;;29.60;99.90;;;;;;5049533;28;20232;-87
2021/06/05 10:00:05;;;;;;;4.27;3.90;;;29.40;99.90;;;;;;5052935;28;20293;-87
2021/06/05 10:02:40;;;;;;;5.13;4.67;;;29.20;99.90;;;;;;5045364;28;20310;-89
2021/06/05 10:05:16;;;;;;;4.60;4.30;;;28.80;99.00;;;;;;5038079;28;20711;-88
2021/06/05 10:07:46;;;;;;;5.23;4.33;;;28.80;99.80;;;;;;5056772;28;20231;-87
2021/06/05 10:10:30;;;;;;;4.20;3.73;;;28.70;99.20;;;;;;5062612;28;20236;-87
2021/06/05 10:13:03;;;;;;;4.70;4.30;;;28.50;98.70;;;;;;5048614;28;20296;-88
2021/06/05 10:15:35;;;;;;;4.70;4.20;;;28.40;99.00;;;;;;5046429;28;20238;-87
2021/06/05 10:18:08;;;;;;;4.60;4.20;;;28.30;99.80;;;;;;5058694;28;20242;-87
2021/06/05 10:20:47;;;;;;;6.13;4.90;;;28.20;99.90;;;;;;5048172;28;20236;-89
2021/06/05 10:23:23;;;;;;;5.33;4.63;;;28.10;99.90;;;;;;5051830;28;20270;-87
2021/06/05 10:25:56;;;;;;;5.03;4.60;;;28.10;99.90;;;;;;5047966;28;20566;-87
2021/06/05 10:28:28;;;;;;;4.90;4.40;;;28.00;99.90;;;;;;5060559;28;20240;-87
2021/06/05 10:31:00;;;;;;;5.70;4.50;;;28.20;99.90;;;;;;5048952;28;20679;-88
2021/06/05 10:33:39;;;;;;;5.70;5.10;;;28.30;99.90;;;;;;5048532;28;20699;-89
2021/06/05 10:36:13;;;;;;;13.43;8.03;;;28.40;99.90;;;;;;5063091;28;20251;-83
2021/06/05 10:38:45;;;;;;;9.03;7.97;;;28.40;99.90;;;;;;5033330;28;20636;-82
2021/06/05 10:41:25;;;;;;;12.27;10.80;;;28.40;99.90;;;;;;5042771;28;20235;-82
2021/06/05 10:44:08;;;;;;;12.83;11.80;;;28.30;99.90;;;;;;5054647;28;20269;-83
2021/06/05 10:46:52;;;;;;;11.27;10.07;;;28.50;99.90;;;;;;5044427;28;20244;-82
2021/06/05 10:49:31;;;;;;;12.63;11.57;;;28.80;99.90;;;;;;5030794;28;20243;-82
2021/06/05 10:52:25;;;;;;;11.50;10.33;;;29.30;99.90;;;;;;5047541;28;20235;-83
2021/06/05 10:55:01;;;;;;;11.67;10.67;;;29.60;99.90;;;;;;5038777;28;20243;-82
2021/06/05 10:57:48;;;;;;;12.20;11.10;;;30.00;99.90;;;;;;5039435;28;20231;-82
2021/06/05 11:00:44;;;;;;;10.80;9.13;;;30.40;99.90;;;;;;5047595;28;20271;-82
2021/06/05 11:03:57;;;;;;;10.57;9.67;;;30.20;99.90;;;;;;5048775;28;20233;-83
2021/06/05 11:06:29;;;;;;;12.40;11.30;;;30.10;99.90;;;;;;5047959;28;20258;-83
2021/06/05 11:09:01;;;;;;;14.77;13.60;;;29.80;99.90;;;;;;5050000;28;20244;-83
2021/06/05 11:11:46;;;;;;;13.13;11.87;;;29.40;99.90;;;;;;5050477;28;20315;-84
2021/06/05 11:14:53;;;;;;;12.20;11.20;;;28.90;99.90;;;;;;5050337;28;20769;-83
2021/06/05 11:17:28;;;;;;;12.33;11.23;;;28.60;99.90;;;;;;5043538;28;20305;-81
2021/06/05 11:20:31;;;;;;;13.00;11.83;;;28.60;99.90;;;;;;5049608;28;20238;-80
2021/06/05 11:23:09;;;;;;;13.83;12.60;;;28.70;99.90;;;;;;5045877;28;20638;-80
2021/06/05 11:25:44;;;;;;;15.17;13.87;;;28.50;99.90;;;;;;5049826;28;20238;-80
2021/06/05 11:28:45;;;;;;;13.73;12.53;;;28.20;99.90;;;;;;5052379;28;20235;-81
2021/06/05 11:31:36;;;;;;;15.73;12.67;;;27.90;99.90;;;;;;5048489;28;20232;-81
2021/06/05 11:34:05;;;;;;;14.10;12.90;;;27.90;99.90;;;;;;5047426;28;20247;-82
2021/06/05 11:36:44;;;;;;;13.47;12.23;;;27.90;99.90;;;;;;5048108;28;20327;-80
2021/06/05 11:39:50;;;;;;;15.10;13.70;;;27.80;99.90;;;;;;5048257;28;20324;-81
2021/06/05 11:42:58;;;;;;;16.40;14.80;;;27.60;99.90;;;;;;5051417;28;20292;-80
2021/06/05 11:45:52;;;;;;;15.30;13.70;;;27.10;99.90;;;;;;5062179;28;20881;-81
2021/06/05 11:48:47;;;;;;;14.13;12.87;;;27.00;99.90;;;;;;5043717;28;20267;-80
2021/06/05 11:51:42;;;;;;;12.57;11.47;;;27.20;99.90;;;;;;5048069;28;20684;-81
2021/06/05 11:54:23;;;;;;;14.50;13.30;;;27.30;99.90;;;;;;5068325;28;20948;-80
2021/06/05 11:56:55;;;;;;;15.50;14.20;;;27.30;99.90;;;;;;5047336;28;20247;-80
2021/06/05 11:59:30;;;;;;;15.03;13.73;;;27.40;99.90;;;;;;5049179;28;20565;-79
2021/06/05 12:02:10;;;;;;;15.07;13.57;;;27.10;99.90;;;;;;5049075;28;20944;-81
2021/06/05 12:04:44;;;;;;;14.60;13.23;;;27.20;99.90;;;;;;5042241;28;20234;-81
2021/06/05 12:07:31;;;;;;;14.37;13.00;;;27.10;99.90;;;;;;5049566;28;20243;-80
2021/06/05 12:10:00;;;;;;;16.70;15.40;;;27.00;99.90;;;;;;5048984;28;20242;-81
2021/06/05 12:12:33;;;;;;;16.27;14.77;;;27.00;99.90;;;;;;5048369;28;20452;-78
2021/06/05 12:15:08;;;;;;;14.00;12.77;;;27.10;99.90;;;;;;5046463;28;20235;-80
2021/06/05 12:17:39;;;;;;;16.08;14.65;;;27.30;99.90;;;;;;5049642;28;20451;-78
2021/06/05 12:20:12;;;;;;;17.93;16.13;;;27.20;99.90;;;;;;5047760;28;20591;-82
2021/06/05 12:22:42;;;;;;;16.33;14.90;;;27.00;99.90;;;;;;5048238;28;20798;-84
2021/06/05 12:25:30;;;;;;;15.57;13.93;;;27.00;99.90;;;;;;5050011;28;20577;-83
2021/06/05 12:28:11;;;;;;;12.03;10.93;;;26.80;99.90;;;;;;5052455;28;20246;-83
2021/06/05 12:30:43;;;;;;;12.40;11.13;;;26.80;99.90;;;;;;5048675;28;20676;-83
2021/06/05 12:33:13;;;;;;;17.17;15.47;;;26.90;99.90;;;;;;5049291;28;20242;-83
2021/06/05 12:35:46;;;;;;;15.23;14.00;;;27.00;99.90;;;;;;5049516;28;20595;-84
2021/06/05 12:38:31;;;;;;;16.13;14.73;;;26.90;99.90;;;;;;5063888;28;20269;-84
2021/06/05 12:41:01;;;;;;;16.83;15.33;;;26.80;99.90;;;;;;5065080;28;20262;-85
2021/06/05 12:43:34;;;;;;;19.27;17.27;;;26.80;99.90;;;;;;5049078;28;20440;-84
2021/06/05 12:46:04;;;;;;;18.43;16.90;;;26.70;99.90;;;;;;5049628;28;20260;-82
2021/06/05 12:48:32;;;;;;;17.80;16.20;;;26.50;99.90;;;;;;5046751;28;20224;-82
2021/06/05 12:51:00;;;;;;;18.30;16.53;;;26.50;99.90;;;;;;5041690;28;20227;-82
2021/06/05 12:53:30;;;;;;;19.07;17.20;;;26.40;99.90;;;;;;5057729;28;20700;-83
2021/06/05 12:56:02;;;;;;;18.20;16.70;;;26.30;99.90;;;;;;5048895;28;20240;-82
2021/06/05 12:58:35;;;;;;;19.80;18.13;;;26.20;99.90;;;;;;5046586;28;20718;-83
2021/06/05 13:01:05;;;;;;;18.50;16.93;;;26.10;99.90;;;;;;5049398;28;20308;-82
2021/06/05 13:03:42;;;;;;;18.40;16.80;;;25.90;99.90;;;;;;5048721;28;20265;-83
2021/06/05 13:06:24;;;;;;;17.50;15.80;;;25.90;99.90;;;;;;5049403;28;20238;-82